createdAt,value
2017-01-30T00:00:00.243Z,1015.69
2017-01-30T00:01:09.230Z,1015.68
2017-01-30T00:02:18.444Z,1015.7
2017-01-30T00:03:27.953Z,1015.72
2017-01-30T00:04:36.925Z,1015.71
2017-01-30T00:05:46.286Z,1015.69
2017-01-30T00:06:55.445Z,1015.7
2017-01-30T00:08:04.922Z,1015.66
2017-01-30T00:09:13.879Z,1015.69
2017-01-30T00:10:22.836Z,1015.64
2017-01-30T00:11:32.200Z,1015.66
2017-01-30T00:12:41.158Z,1015.68
2017-01-30T00:13:50.117Z,1015.71
2017-01-30T00:14:59.077Z,1015.75
2017-01-30T00:16:08.120Z,1015.73
2017-01-30T00:17:17.492Z,1015.76
2017-01-30T00:18:26.452Z,1015.75
2017-01-30T00:19:35.412Z,1015.76
2017-01-30T00:20:44.364Z,1015.71
2017-01-30T00:21:53.325Z,1015.74
2017-01-30T00:23:02.659Z,1015.73
2017-01-30T00:24:12.451Z,1015.71
2017-01-30T00:25:21.406Z,1015.7
2017-01-30T00:26:30.640Z,1015.69
2017-01-30T00:27:39.933Z,1015.71
2017-01-30T00:28:50.556Z,1015.71
2017-01-30T00:30:00.966Z,1015.7
2017-01-30T00:31:10.207Z,1015.66
2017-01-30T00:32:19.279Z,1015.69
2017-01-30T00:33:28.435Z,1015.67
2017-01-30T00:34:37.840Z,1015.72
2017-01-30T00:35:46.883Z,1015.76
2017-01-30T00:36:57.165Z,1015.78
2017-01-30T00:38:06.424Z,1015.75
2017-01-30T00:39:16.123Z,1015.78
2017-01-30T00:40:25.091Z,1015.7
2017-01-30T00:41:34.052Z,1015.73
2017-01-30T00:42:43.015Z,1015.75
2017-01-30T00:43:51.968Z,1015.71
2017-01-30T00:45:02.489Z,1015.74
2017-01-30T00:46:19.462Z,1015.67
2017-01-30T00:47:35.380Z,1015.64
2017-01-30T00:48:49.815Z,1015.62
2017-01-30T00:50:06.774Z,1015.61
2017-01-30T00:51:28.842Z,1015.62
2017-01-30T00:52:51.166Z,1015.67
2017-01-30T00:54:13.771Z,1015.67
2017-01-30T00:55:37.800Z,1015.66
2017-01-30T00:56:57.257Z,1015.63
2017-01-30T00:58:20.136Z,1015.61
2017-01-30T00:59:43.688Z,1015.61
2017-01-30T01:01:06.916Z,1015.61
2017-01-30T01:02:32.951Z,1015.67
2017-01-30T01:03:46.868Z,1015.66
2017-01-30T01:05:10.087Z,1015.67
2017-01-30T01:06:22.083Z,1015.65
2017-01-30T01:07:36.665Z,1015.65
2017-01-30T01:08:45.667Z,1015.6
2017-01-30T01:09:57.094Z,1015.57
2017-01-30T01:11:12.447Z,1015.54
2017-01-30T01:12:27.496Z,1015.51
2017-01-30T01:13:49.788Z,1015.48
2017-01-30T01:15:11.798Z,1015.44
2017-01-30T01:16:28.338Z,1015.46
2017-01-30T01:17:47.140Z,1015.45
2017-01-30T01:19:09.133Z,1015.4
2017-01-30T01:20:34.662Z,1015.36
2017-01-30T01:21:52.457Z,1015.34
2017-01-30T01:23:15.021Z,1015.34
2017-01-30T01:24:28.841Z,1015.31
2017-01-30T01:25:38.263Z,1015.33
2017-01-30T01:26:49.362Z,1015.3
2017-01-30T01:27:58.750Z,1015.24
2017-01-30T01:29:10.241Z,1015.26
2017-01-30T01:30:24.350Z,1015.27
2017-01-30T01:31:41.865Z,1015.25
2017-01-30T01:32:52.190Z,1015.24
2017-01-30T01:34:04.430Z,1015.23
2017-01-30T01:35:16.543Z,1015.24
2017-01-30T01:36:26.588Z,1015.27
2017-01-30T01:37:38.032Z,1015.19
2017-01-30T01:38:54.248Z,1015.14
2017-01-30T01:40:06.938Z,1015.17
2017-01-30T01:41:18.553Z,1015.17
2017-01-30T01:42:27.516Z,1015.14
2017-01-30T01:43:36.473Z,1015.11
2017-01-30T01:44:45.514Z,1015.08
2017-01-30T01:45:54.469Z,1015.13
2017-01-30T01:47:03.425Z,1015.07
2017-01-30T01:48:12.478Z,1015.08
2017-01-30T01:49:21.436Z,1015.06
2017-01-30T01:50:30.399Z,1015.05
2017-01-30T01:51:39.359Z,1015.04
2017-01-30T01:52:48.318Z,1015.03
2017-01-30T01:53:57.283Z,1014.99
2017-01-30T01:55:06.648Z,1015
2017-01-30T01:56:15.606Z,1014.95
2017-01-30T01:57:24.975Z,1014.94
2017-01-30T01:58:34.016Z,1014.91
2017-01-30T01:59:42.971Z,1014.93
2017-01-30T02:00:51.926Z,1014.92
2017-01-30T02:02:00.887Z,1014.88
2017-01-30T02:03:09.843Z,1014.85
2017-01-30T02:04:18.895Z,1014.89
2017-01-30T02:05:27.848Z,1014.88
2017-01-30T02:06:36.902Z,1014.9
2017-01-30T02:07:45.860Z,1014.89
2017-01-30T02:08:54.820Z,1014.9
2017-01-30T02:10:03.777Z,1014.93
2017-01-30T02:11:12.729Z,1014.9
2017-01-30T02:12:21.773Z,1014.88
2017-01-30T02:13:30.815Z,1014.88
2017-01-30T02:14:39.765Z,1014.86
2017-01-30T02:15:49.164Z,1014.84
2017-01-30T02:16:58.118Z,1014.81
2017-01-30T02:18:07.078Z,1014.81
2017-01-30T02:19:16.032Z,1014.76
2017-01-30T02:20:24.988Z,1014.8
2017-01-30T02:21:33.948Z,1014.7
2017-01-30T02:22:42.991Z,1014.67
2017-01-30T02:23:51.954Z,1014.67
2017-01-30T02:25:00.910Z,1014.68
2017-01-30T02:26:09.870Z,1014.69
2017-01-30T02:27:18.825Z,1014.68
2017-01-30T02:28:27.792Z,1014.68
2017-01-30T02:29:36.752Z,1014.65
2017-01-30T02:30:45.711Z,1014.68
2017-01-30T02:31:54.670Z,1014.63
2017-01-30T02:33:03.632Z,1014.58
2017-01-30T02:34:12.590Z,1014.52
2017-01-30T02:35:21.645Z,1014.53
2017-01-30T02:36:30.609Z,1014.52
2017-01-30T02:37:39.655Z,1014.54
2017-01-30T02:38:48.617Z,1014.56
2017-01-30T02:39:57.664Z,1014.58
2017-01-30T02:41:06.622Z,1014.57
2017-01-30T02:42:15.674Z,1014.54
2017-01-30T02:43:24.629Z,1014.54
2017-01-30T02:44:33.677Z,1014.53
2017-01-30T02:45:42.644Z,1014.51
2017-01-30T02:46:52.014Z,1014.57
2017-01-30T02:48:00.973Z,1014.52
2017-01-30T02:49:09.922Z,1014.54
2017-01-30T02:50:18.904Z,1014.55
2017-01-30T02:51:27.956Z,1014.56
2017-01-30T02:52:36.919Z,1014.57
2017-01-30T02:53:45.910Z,1014.57
2017-01-30T02:54:54.869Z,1014.6
2017-01-30T02:56:03.833Z,1014.6
2017-01-30T02:57:12.788Z,1014.57
2017-01-30T02:58:21.835Z,1014.54
2017-01-30T02:59:31.240Z,1014.58
2017-01-30T03:00:40.606Z,1014.54
2017-01-30T03:01:49.647Z,1014.49
2017-01-30T03:02:58.706Z,1014.52
2017-01-30T03:04:07.665Z,1014.49
2017-01-30T03:05:16.629Z,1014.55
2017-01-30T03:06:25.672Z,1014.52
2017-01-30T03:07:34.624Z,1014.5
2017-01-30T03:08:43.583Z,1014.51
2017-01-30T03:09:52.539Z,1014.51
2017-01-30T03:11:01.527Z,1014.5
2017-01-30T03:12:10.481Z,1014.46
2017-01-30T03:13:19.439Z,1014.44
2017-01-30T03:14:28.439Z,1014.44
2017-01-30T03:15:37.401Z,1014.46
2017-01-30T03:16:46.352Z,1014.49
2017-01-30T03:17:55.403Z,1014.48
2017-01-30T03:19:04.360Z,1014.45
2017-01-30T03:20:13.323Z,1014.45
2017-01-30T03:21:22.366Z,1014.46
2017-01-30T03:22:31.323Z,1014.45
2017-01-30T03:23:40.277Z,1014.36
2017-01-30T03:24:49.235Z,1014.39
2017-01-30T03:25:58.198Z,1014.35
2017-01-30T03:27:07.156Z,1014.3
2017-01-30T03:28:16.110Z,1014.31
2017-01-30T03:29:25.066Z,1014.28
2017-01-30T03:30:34.432Z,1014.27
2017-01-30T03:31:44.033Z,1014.29
2017-01-30T03:32:58.213Z,1014.23
2017-01-30T03:34:09.544Z,1014.29
2017-01-30T03:35:20.632Z,1014.28
2017-01-30T03:36:33.225Z,1014.3
2017-01-30T03:37:42.186Z,1014.23
2017-01-30T03:38:51.143Z,1014.3
2017-01-30T03:40:01.669Z,1014.24
2017-01-30T03:41:14.045Z,1014.28
2017-01-30T03:42:25.380Z,1014.26
2017-01-30T03:43:36.747Z,1014.3
2017-01-30T03:44:48.510Z,1014.27
2017-01-30T03:45:59.991Z,1014.32
2017-01-30T03:47:14.760Z,1014.28
2017-01-30T03:48:26.698Z,1014.24
2017-01-30T03:49:40.284Z,1014.22
2017-01-30T03:50:52.124Z,1014.17
2017-01-30T03:52:04.051Z,1014.21
2017-01-30T03:53:18.138Z,1014.24
2017-01-30T03:54:31.933Z,1014.19
2017-01-30T03:55:45.312Z,1014.19
2017-01-30T03:56:54.804Z,1014.22
2017-01-30T03:58:04.395Z,1014.23
2017-01-30T03:59:14.859Z,1014.29
2017-01-30T04:00:23.933Z,1014.23
2017-01-30T04:01:35.438Z,1014.26
2017-01-30T04:02:44.394Z,1014.22
2017-01-30T04:03:57.291Z,1014.19
2017-01-30T04:05:08.187Z,1014.21
2017-01-30T04:06:22.131Z,1014.2
2017-01-30T04:07:38.650Z,1014.19
2017-01-30T04:08:47.859Z,1014.18
2017-01-30T04:10:04.215Z,1014.19
2017-01-30T04:11:18.994Z,1014.16
2017-01-30T04:12:31.706Z,1014.19
2017-01-30T04:13:40.752Z,1014.22
2017-01-30T04:14:49.706Z,1014.16
2017-01-30T04:15:58.668Z,1014.23
2017-01-30T04:17:07.630Z,1014.17
2017-01-30T04:18:16.586Z,1014.18
2017-01-30T04:19:25.545Z,1014.11
2017-01-30T04:20:34.506Z,1014.09
2017-01-30T04:21:43.468Z,1014.11
2017-01-30T04:22:52.451Z,1014.11
2017-01-30T04:24:01.493Z,1014.12
2017-01-30T04:25:10.471Z,1014.09
2017-01-30T04:26:19.426Z,1014.16
2017-01-30T04:27:28.791Z,1014.13
2017-01-30T04:28:37.744Z,1014.21
2017-01-30T04:29:46.712Z,1014.21
2017-01-30T04:30:55.676Z,1014.13
2017-01-30T04:32:04.630Z,1014.12
2017-01-30T04:33:13.679Z,1014.1
2017-01-30T04:34:22.636Z,1014.06
2017-01-30T04:35:31.589Z,1014.07
2017-01-30T04:36:40.545Z,1014.04
2017-01-30T04:37:49.498Z,1014.05
2017-01-30T04:38:58.452Z,1014.03
2017-01-30T04:40:07.404Z,1014.05
2017-01-30T04:41:16.363Z,1014.02
2017-01-30T04:42:25.316Z,1014.02
2017-01-30T04:43:34.278Z,1013.99
2017-01-30T04:44:43.242Z,1013.96
2017-01-30T04:45:52.196Z,1013.9
2017-01-30T04:47:01.152Z,1013.93
2017-01-30T04:48:10.106Z,1013.88
2017-01-30T04:49:19.120Z,1013.88
2017-01-30T04:50:28.478Z,1013.86
2017-01-30T04:51:37.434Z,1013.84
2017-01-30T04:52:46.389Z,1013.83
2017-01-30T04:53:55.348Z,1013.85
2017-01-30T04:55:04.716Z,1013.84
2017-01-30T04:56:13.672Z,1013.88
2017-01-30T04:57:22.632Z,1013.86
2017-01-30T04:58:31.585Z,1013.84
2017-01-30T04:59:40.568Z,1013.8
2017-01-30T05:00:49.604Z,1013.78
2017-01-30T05:01:58.653Z,1013.79
2017-01-30T05:03:08.028Z,1013.75
2017-01-30T05:04:16.985Z,1013.76
2017-01-30T05:05:26.029Z,1013.76
2017-01-30T05:06:34.996Z,1013.73
2017-01-30T05:07:44.034Z,1013.68
2017-01-30T05:08:53.077Z,1013.71
2017-01-30T05:10:02.122Z,1013.7
2017-01-30T05:11:11.081Z,1013.75
2017-01-30T05:12:20.065Z,1013.76
2017-01-30T05:13:29.020Z,1013.73
2017-01-30T05:14:37.975Z,1013.71
2017-01-30T05:15:46.935Z,1013.72
2017-01-30T05:16:55.890Z,1013.68
2017-01-30T05:18:04.956Z,1013.63
2017-01-30T05:19:13.911Z,1013.58
2017-01-30T05:20:22.871Z,1013.59
2017-01-30T05:21:31.830Z,1013.58
2017-01-30T05:22:40.788Z,1013.62
2017-01-30T05:23:49.831Z,1013.58
2017-01-30T05:24:58.793Z,1013.56
2017-01-30T05:26:07.746Z,1013.59
2017-01-30T05:27:16.696Z,1013.57
2017-01-30T05:28:25.650Z,1013.53
2017-01-30T05:29:34.603Z,1013.56
2017-01-30T05:30:43.559Z,1013.55
2017-01-30T05:31:52.515Z,1013.54
2017-01-30T05:33:01.477Z,1013.51
2017-01-30T05:34:10.516Z,1013.53
2017-01-30T05:35:19.504Z,1013.51
2017-01-30T05:36:28.456Z,1013.52
2017-01-30T05:37:37.811Z,1013.46
2017-01-30T05:38:46.767Z,1013.48
2017-01-30T05:39:55.727Z,1013.46
2017-01-30T05:41:04.682Z,1013.44
2017-01-30T05:42:13.663Z,1013.42
2017-01-30T05:43:22.619Z,1013.38
2017-01-30T05:44:31.660Z,1013.39
2017-01-30T05:45:40.622Z,1013.44
2017-01-30T05:46:49.579Z,1013.42
2017-01-30T05:47:58.534Z,1013.42
2017-01-30T05:49:07.898Z,1013.39
2017-01-30T05:50:16.942Z,1013.39
2017-01-30T05:51:25.902Z,1013.38
2017-01-30T05:52:34.861Z,1013.37
2017-01-30T05:53:43.825Z,1013.34
2017-01-30T05:54:52.782Z,1013.3
2017-01-30T05:56:01.746Z,1013.3
2017-01-30T05:57:10.702Z,1013.29
2017-01-30T05:58:19.662Z,1013.26
2017-01-30T05:59:28.631Z,1013.22
2017-01-30T06:00:37.582Z,1013.26
2017-01-30T06:01:46.546Z,1013.28
2017-01-30T06:02:55.501Z,1013.19
2017-01-30T06:04:04.553Z,1013.25
2017-01-30T06:05:13.507Z,1013.19
2017-01-30T06:06:22.551Z,1013.2
2017-01-30T06:07:31.503Z,1013.16
2017-01-30T06:08:40.460Z,1013.14
2017-01-30T06:09:49.452Z,1013.2
2017-01-30T06:10:58.588Z,1013.14
2017-01-30T06:12:07.634Z,1013.16
2017-01-30T06:13:16.591Z,1013.11
2017-01-30T06:14:26.299Z,1013.11
2017-01-30T06:15:35.257Z,1013.11
2017-01-30T06:16:44.213Z,1013.08
2017-01-30T06:17:53.167Z,1013.09
2017-01-30T06:19:02.206Z,1013.06
2017-01-30T06:20:11.160Z,1013.02
2017-01-30T06:21:20.204Z,1013.08
2017-01-30T06:22:29.159Z,1013.07
2017-01-30T06:23:38.119Z,1013.05
2017-01-30T06:24:47.071Z,1013.07
2017-01-30T06:25:56.197Z,1013.06
2017-01-30T06:27:05.163Z,1013.04
2017-01-30T06:28:14.622Z,1013.03
2017-01-30T06:29:23.578Z,1013.01
2017-01-30T06:30:32.538Z,1012.98
2017-01-30T06:31:41.492Z,1012.93
2017-01-30T06:32:50.537Z,1012.95
2017-01-30T06:33:59.498Z,1012.87
2017-01-30T06:35:08.456Z,1012.88
2017-01-30T06:36:17.416Z,1012.85
2017-01-30T06:37:26.370Z,1012.84
2017-01-30T06:38:35.337Z,1012.81
2017-01-30T06:39:44.289Z,1012.79
2017-01-30T06:40:53.423Z,1012.79
2017-01-30T06:42:02.374Z,1012.78
2017-01-30T06:43:11.332Z,1012.76
2017-01-30T06:44:20.373Z,1012.76
2017-01-30T06:45:29.416Z,1012.77
2017-01-30T06:46:38.374Z,1012.72
2017-01-30T06:47:47.334Z,1012.73
2017-01-30T06:48:56.289Z,1012.72
2017-01-30T06:50:05.248Z,1012.67
2017-01-30T06:51:14.605Z,1012.69
2017-01-30T06:52:23.555Z,1012.66
2017-01-30T06:53:32.506Z,1012.63
2017-01-30T06:54:41.555Z,1012.6
2017-01-30T06:55:50.515Z,1012.61
2017-01-30T06:56:59.470Z,1012.64
2017-01-30T06:58:08.425Z,1012.66
2017-01-30T06:59:17.389Z,1012.62
2017-01-30T07:00:26.433Z,1012.65
2017-01-30T07:01:35.388Z,1012.63
2017-01-30T07:02:44.347Z,1012.66
2017-01-30T07:03:53.302Z,1012.67
2017-01-30T07:05:02.257Z,1012.71
2017-01-30T07:06:11.304Z,1012.73
2017-01-30T07:07:20.257Z,1012.72
2017-01-30T07:08:29.211Z,1012.77
2017-01-30T07:09:38.163Z,1012.72
2017-01-30T07:10:47.118Z,1012.72
2017-01-30T07:11:56.078Z,1012.71
2017-01-30T07:13:05.036Z,1012.68
2017-01-30T07:14:14.491Z,1012.74
2017-01-30T07:15:23.446Z,1012.74
2017-01-30T07:16:32.432Z,1012.72
2017-01-30T07:17:41.478Z,1012.69
2017-01-30T07:18:50.522Z,1012.75
2017-01-30T07:19:59.910Z,1012.7
2017-01-30T07:21:08.864Z,1012.66
2017-01-30T07:22:17.821Z,1012.63
2017-01-30T07:23:26.775Z,1012.65
2017-01-30T07:24:35.729Z,1012.62
2017-01-30T07:25:44.766Z,1012.62
2017-01-30T07:26:53.718Z,1012.58
2017-01-30T07:28:02.675Z,1012.56
2017-01-30T07:29:11.633Z,1012.52
2017-01-30T07:30:20.685Z,1012.47
2017-01-30T07:31:29.639Z,1012.43
2017-01-30T07:32:38.595Z,1012.44
2017-01-30T07:33:47.550Z,1012.39
2017-01-30T07:34:56.935Z,1012.37
2017-01-30T07:36:06.302Z,1012.37
2017-01-30T07:37:15.262Z,1012.42
2017-01-30T07:38:24.217Z,1012.38
2017-01-30T07:39:33.178Z,1012.37
2017-01-30T07:40:42.133Z,1012.4
2017-01-30T07:41:51.088Z,1012.37
2017-01-30T07:43:00.450Z,1012.36
2017-01-30T07:44:09.404Z,1012.36
2017-01-30T07:45:18.394Z,1012.41
2017-01-30T07:46:27.347Z,1012.38
2017-01-30T07:47:36.301Z,1012.39
2017-01-30T07:48:45.260Z,1012.38
2017-01-30T07:49:54.217Z,1012.34
2017-01-30T07:51:03.172Z,1012.32
2017-01-30T07:52:12.134Z,1012.3
2017-01-30T07:53:21.102Z,1012.27
2017-01-30T07:54:30.059Z,1012.26
2017-01-30T07:55:39.015Z,1012.32
2017-01-30T07:56:47.975Z,1012.32
2017-01-30T07:57:56.928Z,1012.27
2017-01-30T07:59:05.889Z,1012.23
2017-01-30T08:00:14.842Z,1012.28
2017-01-30T08:01:23.803Z,1012.23
2017-01-30T08:02:32.843Z,1012.2
2017-01-30T08:03:41.798Z,1012.24
2017-01-30T08:04:50.845Z,1012.23
2017-01-30T08:05:59.802Z,1012.21
2017-01-30T08:07:08.782Z,1012.2
2017-01-30T08:08:17.748Z,1012.27
2017-01-30T08:09:26.717Z,1012.18
2017-01-30T08:10:36.080Z,1012.23
2017-01-30T08:11:45.551Z,1012.25
2017-01-30T08:12:57.047Z,1012.2
2017-01-30T08:14:07.876Z,1012.23
2017-01-30T08:15:16.832Z,1012.24
2017-01-30T08:16:25.788Z,1012.2
2017-01-30T08:17:34.832Z,1012.19
2017-01-30T08:18:43.785Z,1012.18
2017-01-30T08:19:52.737Z,1012.15
2017-01-30T08:21:01.694Z,1012.15
2017-01-30T08:22:10.654Z,1012.11
2017-01-30T08:23:19.607Z,1012.11
2017-01-30T08:24:28.651Z,1012.1
2017-01-30T08:25:37.607Z,1012.08
2017-01-30T08:26:46.690Z,1012.05
2017-01-30T08:27:55.733Z,1012.11
2017-01-30T08:29:04.687Z,1012.14
2017-01-30T08:30:13.646Z,1012.12
2017-01-30T08:31:22.688Z,1012.09
2017-01-30T08:32:31.998Z,1012.03
2017-01-30T08:33:42.022Z,1012.03
2017-01-30T08:34:51.689Z,1011.93
2017-01-30T08:36:00.640Z,1011.99
2017-01-30T08:37:10.096Z,1011.91
2017-01-30T08:38:19.579Z,1011.87
2017-01-30T08:39:29.374Z,1011.82
2017-01-30T08:40:39.088Z,1011.83
2017-01-30T08:41:48.054Z,1011.83
2017-01-30T08:42:57.391Z,1011.84
2017-01-30T08:44:06.346Z,1011.86
2017-01-30T08:45:16.664Z,1011.81
2017-01-30T08:46:25.933Z,1011.82
2017-01-30T08:47:35.311Z,1011.77
2017-01-30T08:48:44.673Z,1011.78
2017-01-30T08:49:53.635Z,1011.73
2017-01-30T08:51:02.594Z,1011.73
2017-01-30T08:52:12.262Z,1011.78
2017-01-30T08:53:21.651Z,1011.77
2017-01-30T08:54:31.845Z,1011.75
2017-01-30T08:55:41.043Z,1011.73
2017-01-30T08:56:50.251Z,1011.72
2017-01-30T08:57:59.205Z,1011.68
2017-01-30T08:59:08.171Z,1011.73
2017-01-30T09:00:17.133Z,1011.69
2017-01-30T09:01:26.864Z,1011.71
2017-01-30T09:02:36.395Z,1011.66
2017-01-30T09:03:45.967Z,1011.65
2017-01-30T09:04:55.183Z,1011.7
2017-01-30T09:06:04.595Z,1011.7
2017-01-30T09:07:14.134Z,1011.66
2017-01-30T09:08:23.781Z,1011.65
2017-01-30T09:09:32.738Z,1011.63
2017-01-30T09:10:41.705Z,1011.71
2017-01-30T09:11:50.662Z,1011.67
2017-01-30T09:12:59.623Z,1011.72
2017-01-30T09:14:08.589Z,1011.69
2017-01-30T09:15:17.688Z,1011.65
2017-01-30T09:16:27.530Z,1011.63
2017-01-30T09:17:37.345Z,1011.58
2017-01-30T09:18:46.974Z,1011.56
2017-01-30T09:19:56.942Z,1011.53
2017-01-30T09:21:05.904Z,1011.52
2017-01-30T09:22:15.388Z,1011.51
2017-01-30T09:23:25.496Z,1011.53
2017-01-30T09:24:34.456Z,1011.56
2017-01-30T09:25:44.221Z,1011.55
2017-01-30T09:26:53.942Z,1011.55
2017-01-30T09:28:03.397Z,1011.48
2017-01-30T09:29:12.379Z,1011.49
2017-01-30T09:30:22.063Z,1011.47
2017-01-30T09:31:31.026Z,1011.47
2017-01-30T09:32:39.987Z,1011.38
2017-01-30T09:33:48.945Z,1011.39
2017-01-30T09:34:57.905Z,1011.36
2017-01-30T09:36:06.863Z,1011.32
2017-01-30T09:37:15.820Z,1011.31
2017-01-30T09:38:24.779Z,1011.28
2017-01-30T09:39:33.738Z,1011.19
2017-01-30T09:40:42.704Z,1011.14
2017-01-30T09:41:51.660Z,1011.18
2017-01-30T09:43:01.210Z,1011.18
2017-01-30T09:44:10.398Z,1011.19
2017-01-30T09:45:19.360Z,1011.22
2017-01-30T09:46:29.352Z,1011.18
2017-01-30T09:47:38.594Z,1011.13
2017-01-30T09:48:47.554Z,1011.09
2017-01-30T09:49:57.512Z,1011.08
2017-01-30T09:51:06.473Z,1011.05
2017-01-30T09:52:15.516Z,1011.06
2017-01-30T09:53:24.558Z,1011.07
2017-01-30T09:54:33.515Z,1011.03
2017-01-30T09:55:42.471Z,1011.06
2017-01-30T09:56:51.437Z,1011.02
2017-01-30T09:58:00.395Z,1010.97
2017-01-30T09:59:09.347Z,1010.99
2017-01-30T10:00:18.304Z,1010.92
2017-01-30T10:01:27.269Z,1010.96
2017-01-30T10:02:36.635Z,1010.9
2017-01-30T10:03:45.689Z,1010.84
2017-01-30T10:04:54.650Z,1010.85
2017-01-30T10:06:03.613Z,1010.8
2017-01-30T10:07:12.570Z,1010.8
2017-01-30T10:08:21.530Z,1010.74
2017-01-30T10:09:30.491Z,1010.72
2017-01-30T10:10:39.443Z,1010.77
2017-01-30T10:11:48.403Z,1010.81
2017-01-30T10:12:57.775Z,1010.74
2017-01-30T10:14:06.732Z,1010.72
2017-01-30T10:15:15.781Z,1010.69
2017-01-30T10:16:25.322Z,1010.63
2017-01-30T10:17:35.511Z,1010.62
2017-01-30T10:18:45.059Z,1010.58
2017-01-30T10:19:55.069Z,1010.53
2017-01-30T10:21:04.037Z,1010.51
2017-01-30T10:22:12.991Z,1010.51
2017-01-30T10:23:21.944Z,1010.46
2017-01-30T10:24:30.900Z,1010.48
2017-01-30T10:25:40.238Z,1010.46
2017-01-30T10:26:50.227Z,1010.43
2017-01-30T10:27:59.975Z,1010.39
2017-01-30T10:29:08.931Z,1010.36
2017-01-30T10:30:18.566Z,1010.38
2017-01-30T10:31:27.728Z,1010.39
2017-01-30T10:32:36.804Z,1010.36
2017-01-30T10:33:45.849Z,1010.35
2017-01-30T10:34:55.052Z,1010.35
2017-01-30T10:36:04.015Z,1010.3
2017-01-30T10:37:12.971Z,1010.26
2017-01-30T10:38:21.951Z,1010.33
2017-01-30T10:39:30.905Z,1010.28
2017-01-30T10:40:39.960Z,1010.31
2017-01-30T10:41:48.919Z,1010.27
2017-01-30T10:42:57.874Z,1010.27
2017-01-30T10:44:06.858Z,1010.24
2017-01-30T10:45:15.811Z,1010.24
2017-01-30T10:46:24.766Z,1010.29
2017-01-30T10:47:33.720Z,1010.26
2017-01-30T10:48:42.675Z,1010.29
2017-01-30T10:49:51.632Z,1010.3
2017-01-30T10:51:01.399Z,1010.27
2017-01-30T10:52:10.443Z,1010.29
2017-01-30T10:53:19.397Z,1010.27
2017-01-30T10:54:28.360Z,1010.32
2017-01-30T10:55:37.323Z,1010.28
2017-01-30T10:56:46.283Z,1010.26
2017-01-30T10:57:55.248Z,1010.23
2017-01-30T10:59:04.206Z,1010.27
2017-01-30T11:00:13.168Z,1010.34
2017-01-30T11:01:22.126Z,1010.29
2017-01-30T11:02:31.486Z,1010.22
2017-01-30T11:03:40.437Z,1010.27
2017-01-30T11:04:49.404Z,1010.28
2017-01-30T11:05:58.448Z,1010.29
2017-01-30T11:07:07.824Z,1010.26
2017-01-30T11:08:16.866Z,1010.28
2017-01-30T11:09:26.227Z,1010.24
2017-01-30T11:10:35.271Z,1010.24
2017-01-30T11:11:44.247Z,1010.22
2017-01-30T11:12:53.304Z,1010.22
2017-01-30T11:14:02.258Z,1010.19
2017-01-30T11:15:11.216Z,1010.16
2017-01-30T11:16:20.593Z,1010.12
2017-01-30T11:17:29.553Z,1010.04
2017-01-30T11:18:38.519Z,1010.01
2017-01-30T11:19:47.883Z,1010
2017-01-30T11:20:56.932Z,1009.96
2017-01-30T11:22:05.891Z,1010.04
2017-01-30T11:23:14.938Z,1009.98
2017-01-30T11:24:23.991Z,1010.05
2017-01-30T11:25:33.067Z,1009.99
2017-01-30T11:26:42.144Z,1010.02
2017-01-30T11:27:51.365Z,1009.93
2017-01-30T11:29:00.330Z,1009.94
2017-01-30T11:30:09.313Z,1009.92
2017-01-30T11:31:18.276Z,1009.9
2017-01-30T11:32:27.234Z,1009.88
2017-01-30T11:33:36.599Z,1009.82
2017-01-30T11:34:45.642Z,1009.82
2017-01-30T11:35:54.597Z,1009.76
2017-01-30T11:37:03.958Z,1009.73
2017-01-30T11:38:13.001Z,1009.76
2017-01-30T11:39:21.958Z,1009.74
2017-01-30T11:40:31.325Z,1009.72
2017-01-30T11:41:40.289Z,1009.72
2017-01-30T11:42:49.243Z,1009.68
2017-01-30T11:43:58.201Z,1009.64
2017-01-30T11:45:07.165Z,1009.68
2017-01-30T11:46:16.121Z,1009.65
2017-01-30T11:47:25.074Z,1009.55
2017-01-30T11:48:34.042Z,1009.57
2017-01-30T11:49:43.015Z,1009.61
2017-01-30T11:50:51.988Z,1009.62
2017-01-30T11:52:00.959Z,1009.57
2017-01-30T11:53:09.920Z,1009.56
2017-01-30T11:54:18.881Z,1009.51
2017-01-30T11:55:27.837Z,1009.52
2017-01-30T11:56:36.819Z,1009.51
2017-01-30T11:57:45.777Z,1009.47
2017-01-30T11:58:54.735Z,1009.48
2017-01-30T12:00:03.691Z,1009.49
2017-01-30T12:01:12.648Z,1009.51
2017-01-30T12:02:21.605Z,1009.46
2017-01-30T12:03:30.567Z,1009.44
2017-01-30T12:04:39.526Z,1009.43
2017-01-30T12:05:48.483Z,1009.45
2017-01-30T12:06:57.529Z,1009.48
2017-01-30T12:08:06.487Z,1009.4
2017-01-30T12:09:15.440Z,1009.36
2017-01-30T12:10:24.491Z,1009.38
2017-01-30T12:11:33.456Z,1009.31
2017-01-30T12:12:42.407Z,1009.29
2017-01-30T12:13:51.392Z,1009.28
2017-01-30T12:15:00.350Z,1009.24
2017-01-30T12:16:09.310Z,1009.23
2017-01-30T12:17:18.267Z,1009.25
2017-01-30T12:18:27.643Z,1009.36
2017-01-30T12:19:36.604Z,1009.38
2017-01-30T12:20:45.565Z,1009.3
2017-01-30T12:21:54.525Z,1009.33
2017-01-30T12:23:03.887Z,1009.29
2017-01-30T12:24:12.858Z,1009.2
2017-01-30T12:25:21.815Z,1009.17
2017-01-30T12:26:30.861Z,1009.14
2017-01-30T12:27:39.817Z,1009.1
2017-01-30T12:28:48.774Z,1009.09
2017-01-30T12:29:57.735Z,1009.08
2017-01-30T12:31:06.702Z,1009.02
2017-01-30T12:32:16.154Z,1008.95
2017-01-30T12:33:25.107Z,1008.96
2017-01-30T12:34:34.062Z,1008.97
2017-01-30T12:35:43.025Z,1008.96
2017-01-30T12:36:52.388Z,1008.97
2017-01-30T12:38:01.347Z,1008.91
2017-01-30T12:39:10.312Z,1008.85
2017-01-30T12:40:19.297Z,1008.92
2017-01-30T12:41:28.255Z,1008.86
2017-01-30T12:42:37.215Z,1008.93
2017-01-30T12:43:46.171Z,1008.91
2017-01-30T12:44:55.130Z,1008.86
2017-01-30T12:46:04.085Z,1008.84
2017-01-30T12:47:13.046Z,1008.83
2017-01-30T12:48:22.007Z,1008.79
2017-01-30T12:49:31.050Z,1008.78
2017-01-30T12:50:40.005Z,1008.81
2017-01-30T12:51:48.971Z,1008.74
2017-01-30T12:52:58.011Z,1008.72
2017-01-30T12:54:07.061Z,1008.74
2017-01-30T12:55:16.025Z,1008.7
2017-01-30T12:56:24.984Z,1008.73
2017-01-30T12:57:34.052Z,1008.7
2017-01-30T12:58:43.412Z,1008.71
2017-01-30T12:59:52.771Z,1008.68
2017-01-30T13:01:01.728Z,1008.61
2017-01-30T13:02:10.685Z,1008.59
2017-01-30T13:03:19.644Z,1008.57
2017-01-30T13:04:28.603Z,1008.53
2017-01-30T13:05:37.650Z,1008.6
2017-01-30T13:06:46.605Z,1008.55
2017-01-30T13:07:55.972Z,1008.56
2017-01-30T13:09:04.929Z,1008.43
2017-01-30T13:10:13.974Z,1008.45
2017-01-30T13:11:22.927Z,1008.46
2017-01-30T13:12:32.061Z,1008.37
2017-01-30T13:13:41.020Z,1008.31
2017-01-30T13:14:49.976Z,1008.28
2017-01-30T13:15:58.936Z,1008.35
2017-01-30T13:17:07.916Z,1008.3
2017-01-30T13:18:16.982Z,1008.25
2017-01-30T13:19:25.937Z,1008.24
2017-01-30T13:20:34.890Z,1008.24
2017-01-30T13:21:43.842Z,1008.24
2017-01-30T13:22:52.801Z,1008.25
2017-01-30T13:24:02.166Z,1008.23
2017-01-30T13:25:11.119Z,1008.18
2017-01-30T13:26:20.078Z,1008.17
2017-01-30T13:27:29.034Z,1008.15
2017-01-30T13:28:37.992Z,1008.17
2017-01-30T13:29:46.942Z,1008.13
2017-01-30T13:30:55.893Z,1008.13
2017-01-30T13:32:04.954Z,1008.06
2017-01-30T13:33:14.312Z,1008.05
2017-01-30T13:34:23.265Z,1008.05
2017-01-30T13:35:32.248Z,1008
2017-01-30T13:36:41.990Z,1008.04
2017-01-30T13:37:50.944Z,1008.01
2017-01-30T13:38:59.909Z,1007.98
2017-01-30T13:40:08.868Z,1007.96
2017-01-30T13:41:17.825Z,1007.96
2017-01-30T13:42:27.189Z,1007.94
2017-01-30T13:43:36.145Z,1007.98
2017-01-30T13:44:45.101Z,1007.91
2017-01-30T13:45:54.059Z,1007.93
2017-01-30T13:47:03.426Z,1007.9
2017-01-30T13:48:12.375Z,1007.89
2017-01-30T13:49:21.334Z,1007.88
2017-01-30T13:50:30.294Z,1007.94
2017-01-30T13:51:39.248Z,1007.85
2017-01-30T13:52:48.297Z,1007.87
2017-01-30T13:53:57.253Z,1007.83
2017-01-30T13:55:06.201Z,1007.84
2017-01-30T13:56:15.240Z,1007.8
2017-01-30T13:57:24.196Z,1007.76
2017-01-30T13:58:33.240Z,1007.72
2017-01-30T13:59:42.205Z,1007.73
2017-01-30T14:00:51.218Z,1007.7
2017-01-30T14:02:00.172Z,1007.79
2017-01-30T14:03:09.132Z,1007.71
2017-01-30T14:04:18.171Z,1007.73